Current | Forecast
Updated: 10:00 AM JST on November 19, 2017
Observed at Nagoya / Chubu, Japan
Temperature 50°F
Humidity 66%
Dew Point 39°F
Wind NW at 15 mph
Pressure 29.98 in (Steady)
Conditions Scattered Clouds
Visibility 6.2 miles
UV 3 out of 16
Clouds Scattered Clouds (SCT) : 2500 ft
Yesterday's Maximum 55°F
Yesterday's Minimum 48°F approx.
Yesterday's Heating Degree Days 13 approx.
Sunrise6:31 AM JST
Sunset4:44 PM JST
Moon Rise6:48 AM JST
Moon Set5:32 PM JST
Moon PhaseMoon Phase
New Moon
Raw METARMETAR RJGG 190100Z 31013KT 9999 SCT025 10/04 Q1015 NOSIG


Monday
. High: 75° F.
Tuesday
. High: 68° F.
Wednesday
. High: 71° F.
Thursday
. High: 71° F.
Friday
. High: 75° F.
Saturday
. High: 69° F.
Sunday
. High: 73° F.
Monday
. High: 75° F.

Units: English | Metric

Find the Weather for any City, State or Zipcode, or Country:

U.S. State List | Severe Weather | Tropical Storms | Ski Conditions
United States | Canada | Central America | South America | Asia | Europe | Australia | Africa | Islands

Weather Underground

© Copyright 2017
The Weather Company, LLC